createdAt,value
2023-02-27T00:00:28.975Z,98324.19
2023-02-27T00:03:02.079Z,98317.19
2023-02-27T00:05:35.053Z,98328.88
2023-02-27T00:08:08.066Z,98319.59
2023-02-27T00:10:41.106Z,98325.91
2023-02-27T00:13:14.076Z,98324.84
2023-02-27T00:15:50.337Z,98328.56
2023-02-27T00:18:23.573Z,98330.19
2023-02-27T00:20:56.576Z,98324.75
2023-02-27T00:23:29.690Z,98328.88
2023-02-27T00:26:02.742Z,98325.06
2023-02-27T00:28:35.802Z,98326.84
2023-02-27T00:31:10.359Z,98322.03
2023-02-27T00:34:01.250Z,98321.38
2023-02-27T00:36:34.248Z,98329.63
2023-02-27T00:39:07.268Z,98331.66
2023-02-27T00:41:40.417Z,98328.22
2023-02-27T00:44:13.393Z,98330.75
2023-02-27T00:46:47.756Z,98330.09
2023-02-27T00:49:20.740Z,98330.50
2023-02-27T00:51:54.198Z,98337.03
2023-02-27T00:54:27.566Z,98330.16
2023-02-27T00:57:00.542Z,98328.69
2023-02-27T00:59:33.552Z,98325.06
2023-02-27T01:02:07.970Z,98330.41
2023-02-27T01:04:41.188Z,98328.88
2023-02-27T01:07:14.451Z,98326.72
2023-02-27T01:09:47.451Z,98327.56
2023-02-27T01:12:20.791Z,98328.25
2023-02-27T01:14:53.838Z,98333.22
2023-02-27T01:17:28.354Z,98324.44
2023-02-27T01:20:01.476Z,98327.66
2023-02-27T01:22:34.572Z,98327.66
2023-02-27T01:25:09.226Z,98326.81
2023-02-27T01:27:42.230Z,98324.63
2023-02-27T01:30:16.750Z,98330.41
2023-02-27T01:32:51.139Z,98326.63
2023-02-27T01:35:24.114Z,98325.56
2023-02-27T01:37:57.170Z,98319.41
2023-02-27T01:40:30.286Z,98328.44
2023-02-27T01:43:03.317Z,98334.38
2023-02-27T01:45:37.354Z,98334.47
2023-02-27T01:48:18.311Z,98322.88
2023-02-27T01:50:54.692Z,98330.63
2023-02-27T01:53:29.997Z,98325.50
2023-02-27T01:56:10.291Z,98335.63
2023-02-27T01:58:44.525Z,98333.00
2023-02-27T02:01:18.664Z,98317.63
2023-02-27T02:04:02.272Z,98323.69
2023-02-27T02:06:39.793Z,98315.81
2023-02-27T02:09:14.244Z,98311.66
2023-02-27T02:11:47.785Z,98320.06
2023-02-27T02:14:21.026Z,98314.75
2023-02-27T02:17:11.061Z,98319.28
2023-02-27T02:20:35.922Z,98317.88
2023-02-27T02:24:05.749Z,98318.88
2023-02-27T02:26:52.363Z,98317.09
2023-02-27T02:30:14.350Z,98318.06
2023-02-27T02:33:20.685Z,98321.59
2023-02-27T02:37:01.508Z,98318.69
2023-02-27T02:39:57.311Z,98317.06
2023-02-27T02:42:38.128Z,98316.38
2023-02-27T02:45:19.424Z,98317.09
2023-02-27T02:48:05.549Z,98317.41
2023-02-27T02:50:46.429Z,98314.22
2023-02-27T02:53:36.736Z,98313.13
2023-02-27T02:56:23.119Z,98310.28
2023-02-27T02:59:02.117Z,98312.78
2023-02-27T03:01:40.611Z,98324.19
2023-02-27T03:04:19.713Z,98325.22
2023-02-27T03:07:00.203Z,98327.16
2023-02-27T03:09:38.324Z,98321.59
2023-02-27T03:12:18.954Z,98322.53
2023-02-27T03:14:57.527Z,98319.72
2023-02-27T03:17:42.058Z,98312.00
2023-02-27T03:20:20.428Z,98316.72
2023-02-27T03:22:58.216Z,98308.78
2023-02-27T03:25:32.488Z,98328.22
2023-02-27T03:28:11.364Z,98329.59
2023-02-27T03:30:51.753Z,98336.38
2023-02-27T03:33:31.609Z,98337.84
2023-02-27T03:36:11.127Z,98326.88
2023-02-27T03:38:50.186Z,98333.88
2023-02-27T03:41:32.572Z,98340.69
2023-02-27T03:44:13.035Z,98341.50
2023-02-27T03:46:46.066Z,98338.00
2023-02-27T03:49:19.199Z,98333.78
2023-02-27T03:51:52.211Z,98342.91
2023-02-27T03:54:31.466Z,98333.59
2023-02-27T03:57:07.849Z,98338.84
2023-02-27T03:59:42.352Z,98355.03
2023-02-27T04:02:16.331Z,98338.31
2023-02-27T04:04:49.399Z,98342.25
2023-02-27T04:07:32.248Z,98341.72
2023-02-27T04:10:24.154Z,98356.59
2023-02-27T04:13:21.856Z,98340.38
2023-02-27T04:16:17.328Z,98345.41
2023-02-27T04:19:07.735Z,98358.56
2023-02-27T04:21:51.116Z,98353.81
2023-02-27T04:24:37.190Z,98350.78
2023-02-27T04:27:21.943Z,98352.09
2023-02-27T04:30:02.243Z,98349.84
2023-02-27T04:32:42.091Z,98351.06
2023-02-27T04:35:21.952Z,98345.97
2023-02-27T04:38:00.730Z,98351.28
2023-02-27T04:40:39.675Z,98356.75
2023-02-27T04:43:15.547Z,98355.88
2023-02-27T04:45:51.661Z,98356.06
2023-02-27T04:48:30.298Z,98354.44
2023-02-27T04:51:11.036Z,98354.97
2023-02-27T04:53:51.269Z,98361.75
2023-02-27T04:56:30.610Z,98361.47
2023-02-27T04:59:08.860Z,98363.91
2023-02-27T05:01:46.477Z,98362.03
2023-02-27T05:04:23.723Z,98372.91
2023-02-27T05:06:57.649Z,98365.06
2023-02-27T05:09:37.837Z,98368.84
2023-02-27T05:12:18.185Z,98369.34
2023-02-27T05:14:57.683Z,98370.91
2023-02-27T05:17:36.300Z,98373.94
2023-02-27T05:20:14.795Z,98373.88
2023-02-27T05:22:53.463Z,98364.03
2023-02-27T05:25:33.045Z,98375.63
2023-02-27T05:28:10.506Z,98383.25
2023-02-27T05:30:54.011Z,98383.34
2023-02-27T05:33:32.486Z,98385.56
2023-02-27T05:36:12.422Z,98382.66
2023-02-27T05:38:50.231Z,98388.00
2023-02-27T05:41:27.633Z,98389.84
2023-02-27T05:44:07.161Z,98384.44
2023-02-27T05:46:45.062Z,98387.63
2023-02-27T05:49:23.987Z,98389.88
2023-02-27T05:52:02.621Z,98387.47
2023-02-27T05:54:43.826Z,98396.97
2023-02-27T05:57:25.184Z,98387.84
2023-02-27T06:00:05.320Z,98388.34
2023-02-27T06:02:38.861Z,98389.03
2023-02-27T06:05:12.796Z,98388.41
2023-02-27T06:07:47.641Z,98397.16
2023-02-27T06:10:23.190Z,98387.69
2023-02-27T06:12:56.142Z,98394.09
2023-02-27T06:15:29.371Z,98396.56
2023-02-27T06:18:02.428Z,98395.47
2023-02-27T06:20:35.492Z,98405.59
2023-02-27T06:23:10.645Z,98400.72
2023-02-27T06:25:43.997Z,98400.63
2023-02-27T06:28:17.129Z,98405.97
2023-02-27T06:30:54.583Z,98403.28
2023-02-27T06:33:28.029Z,98413.59
2023-02-27T06:36:01.021Z,98408.44
2023-02-27T06:38:35.499Z,98418.47
2023-02-27T06:41:08.532Z,98430.94
2023-02-27T06:43:41.642Z,98417.47
2023-02-27T06:46:14.679Z,98412.56
2023-02-27T06:48:47.715Z,98415.63
2023-02-27T06:51:20.680Z,98415.69
2023-02-27T06:53:55.061Z,98415.81
2023-02-27T06:56:28.336Z,98428.75
2023-02-27T06:59:01.538Z,98419.81
2023-02-27T07:01:34.604Z,98423.88
2023-02-27T07:04:07.763Z,98417.22
2023-02-27T07:07:35.108Z,98418.25
2023-02-27T07:09:36.155Z,98426.47
2023-02-27T07:12:10.052Z,98436.25
2023-02-27T07:14:43.224Z,98426.78
2023-02-27T07:17:16.247Z,98423.41
2023-02-27T07:19:49.251Z,98423.59
2023-02-27T07:22:22.259Z,98426.94
2023-02-27T07:24:56.716Z,98423.59
2023-02-27T07:27:29.744Z,98424.50
2023-02-27T07:30:02.802Z,98431.84
2023-02-27T07:32:36.023Z,98432.13
2023-02-27T07:35:10.903Z,98432.78
2023-02-27T07:37:43.919Z,98429.34
2023-02-27T07:40:19.033Z,98417.06
2023-02-27T07:42:53.204Z,98423.03
2023-02-27T07:45:26.411Z,98421.91
2023-02-27T07:47:59.378Z,98424.44
2023-02-27T07:50:32.369Z,98424.19
2023-02-27T07:53:07.870Z,98429.28
2023-02-27T07:55:42.348Z,98427.28
2023-02-27T07:58:15.491Z,98431.13
2023-02-27T08:00:48.584Z,98436.00
2023-02-27T08:03:21.634Z,98435.13
2023-02-27T08:05:54.625Z,98435.78
2023-02-27T08:08:28.423Z,98433.16
2023-02-27T08:11:02.743Z,98433.88
2023-02-27T08:13:59.591Z,98443.28
2023-02-27T08:16:30.823Z,98431.47
2023-02-27T08:19:04.348Z,98437.06
2023-02-27T08:21:37.374Z,98438.88
2023-02-27T08:24:10.850Z,98439.53
2023-02-27T08:26:45.371Z,98444.78
2023-02-27T08:29:18.444Z,98442.81
2023-02-27T08:31:51.685Z,98434.00
2023-02-27T08:34:25.593Z,98434.88
2023-02-27T08:36:59.070Z,98429.69
2023-02-27T08:39:32.138Z,98452.72
2023-02-27T08:42:07.193Z,98440.91
2023-02-27T08:44:40.171Z,98442.19
2023-02-27T08:47:13.314Z,98444.75
2023-02-27T08:49:46.371Z,98443.50
2023-02-27T08:52:19.338Z,98448.97
2023-02-27T08:54:52.301Z,98443.94
2023-02-27T08:57:26.903Z,98449.22
2023-02-27T08:59:59.992Z,98450.22
2023-02-27T09:02:33.204Z,98453.34
2023-02-27T09:05:07.310Z,98469.47
2023-02-27T09:07:40.291Z,98462.09
2023-02-27T09:10:13.998Z,98448.81
2023-02-27T09:12:49.244Z,98444.09
2023-02-27T09:15:22.408Z,98446.44
2023-02-27T09:17:58.873Z,98434.28
2023-02-27T09:20:32.625Z,98451.78
2023-02-27T09:23:05.811Z,98459.81
2023-02-27T09:25:39.069Z,98458.94
2023-02-27T09:28:13.401Z,98454.03
2023-02-27T09:30:46.748Z,98458.34
2023-02-27T09:33:19.938Z,98447.94
2023-02-27T09:35:52.977Z,98456.25
2023-02-27T09:38:26.852Z,98454.47
2023-02-27T09:41:01.208Z,98459.53
2023-02-27T09:43:41.576Z,98467.38
2023-02-27T09:46:19.907Z,98464.88
2023-02-27T09:48:56.229Z,98451.81
2023-02-27T09:51:30.783Z,98465.13
2023-02-27T09:54:05.935Z,98461.44
2023-02-27T09:56:47.640Z,98471.56
2023-02-27T09:59:36.016Z,98469.03
2023-02-27T10:02:31.563Z,98464.25
2023-02-27T10:05:18.167Z,98467.50
2023-02-27T10:08:00.989Z,98472.72
2023-02-27T10:10:42.705Z,98477.59
2023-02-27T10:13:35.923Z,98471.19
2023-02-27T10:16:15.068Z,98461.41
2023-02-27T10:18:57.941Z,98467.19
2023-02-27T10:21:36.001Z,98467.19
2023-02-27T10:24:27.578Z,98471.84
2023-02-27T10:27:05.634Z,98468.59
2023-02-27T10:29:40.248Z,98462.84
2023-02-27T10:32:21.911Z,98485.94
2023-02-27T10:34:59.992Z,98482.72
2023-02-27T10:37:33.442Z,98477.31
2023-02-27T10:40:08.471Z,98492.84
2023-02-27T10:42:41.834Z,98510.34
2023-02-27T10:45:16.680Z,98488.22
2023-02-27T10:47:51.243Z,98492.03
2023-02-27T10:50:28.621Z,98482.25
2023-02-27T10:53:04.139Z,98490.97
2023-02-27T10:55:39.278Z,98492.91
2023-02-27T10:58:20.722Z,98491.47
2023-02-27T11:00:57.933Z,98483.00
2023-02-27T11:03:39.239Z,98501.22
2023-02-27T11:06:22.382Z,98482.41
2023-02-27T11:09:20.404Z,98471.91
2023-02-27T11:11:54.630Z,98484.25
2023-02-27T11:14:31.136Z,98484.75
2023-02-27T11:17:04.686Z,98491.72
2023-02-27T11:19:40.585Z,98481.34
2023-02-27T11:22:18.582Z,98493.97
2023-02-27T11:24:53.147Z,98478.69
2023-02-27T11:27:29.885Z,98467.38
2023-02-27T11:30:07.916Z,98486.56
2023-02-27T11:32:45.814Z,98493.19
2023-02-27T11:35:25.634Z,98476.22
2023-02-27T11:38:02.199Z,98483.00
2023-02-27T11:40:40.454Z,98475.06
2023-02-27T11:43:20.020Z,98482.03
2023-02-27T11:46:04.972Z,98477.56
2023-02-27T11:48:52.666Z,98467.63
2023-02-27T11:51:44.680Z,98481.72
2023-02-27T11:54:34.748Z,98477.47
2023-02-27T11:57:22.157Z,98478.75
2023-02-27T12:00:02.908Z,98481.41
2023-02-27T12:02:47.617Z,98473.88
2023-02-27T12:05:26.339Z,98472.28
2023-02-27T12:08:05.932Z,98476.31
2023-02-27T12:10:47.523Z,98475.91
2023-02-27T12:13:26.166Z,98472.50
2023-02-27T12:16:04.837Z,98473.59
2023-02-27T12:18:45.096Z,98465.47
2023-02-27T12:21:22.892Z,98461.56
2023-02-27T12:24:04.870Z,98472.47
2023-02-27T12:26:40.986Z,98477.56
2023-02-27T12:29:22.442Z,98474.03
2023-02-27T12:32:03.240Z,98458.81
2023-02-27T12:34:42.388Z,98470.09
2023-02-27T12:37:23.395Z,98456.28
2023-02-27T12:40:01.450Z,98462.16
2023-02-27T12:43:12.277Z,98438.19
2023-02-27T12:46:21.582Z,98456.00
2023-02-27T12:49:13.801Z,98451.94
2023-02-27T12:51:57.673Z,98438.25
2023-02-27T12:54:50.398Z,98436.09
2023-02-27T12:57:46.750Z,98446.28
2023-02-27T13:00:21.946Z,98457.94
2023-02-27T13:03:06.250Z,98453.53
2023-02-27T13:05:47.442Z,98449.66
2023-02-27T13:08:39.206Z,98442.75
2023-02-27T13:11:26.698Z,98453.44
2023-02-27T13:14:05.059Z,98449.53
2023-02-27T13:16:43.164Z,98439.88
2023-02-27T13:19:19.889Z,98442.56
2023-02-27T13:21:57.400Z,98452.16
2023-02-27T13:24:31.922Z,98448.81
2023-02-27T13:27:10.111Z,98458.22
2023-02-27T13:29:49.560Z,98448.00
2023-02-27T13:32:41.674Z,98447.75
2023-02-27T13:35:36.217Z,98443.41
2023-02-27T13:38:35.610Z,98450.63
2023-02-27T13:41:48.098Z,98465.16
2023-02-27T13:44:53.427Z,98458.78
2023-02-27T13:47:48.818Z,98451.19
2023-02-27T13:50:53.562Z,98451.31
2023-02-27T13:53:28.102Z,98459.75
2023-02-27T13:56:20.932Z,98443.84
2023-02-27T13:58:55.273Z,98433.97
2023-02-27T14:01:31.860Z,98460.06
2023-02-27T14:04:08.482Z,98453.09
2023-02-27T14:06:47.038Z,98464.19
2023-02-27T14:09:22.939Z,98448.97
2023-02-27T14:11:59.079Z,98444.03
2023-02-27T14:14:46.006Z,98444.59
2023-02-27T14:17:44.806Z,98451.41
2023-02-27T14:20:52.076Z,98452.38
2023-02-27T14:23:27.517Z,98454.22
2023-02-27T14:26:15.444Z,98461.38
2023-02-27T14:28:55.608Z,98452.94
2023-02-27T14:31:33.126Z,98462.28
2023-02-27T14:34:09.148Z,98472.25
2023-02-27T14:36:46.795Z,98466.75
2023-02-27T14:39:23.346Z,98466.47
2023-02-27T14:42:33.985Z,98461.91
2023-02-27T14:45:15.418Z,98462.78
2023-02-27T14:47:48.591Z,98465.59
2023-02-27T14:50:32.300Z,98472.50
2023-02-27T14:53:07.087Z,98464.88
2023-02-27T14:55:40.092Z,98470.50
2023-02-27T14:58:19.156Z,98473.59
2023-02-27T15:01:04.291Z,98476.53
2023-02-27T15:03:43.790Z,98479.69
2023-02-27T15:06:21.294Z,98480.59
2023-02-27T15:08:57.104Z,98487.84
2023-02-27T15:11:30.517Z,98480.56
2023-02-27T15:14:06.358Z,98480.44
2023-02-27T15:16:40.646Z,98476.31
2023-02-27T15:19:20.000Z,98479.59
2023-02-27T15:21:58.808Z,98485.94
2023-02-27T15:24:47.851Z,98491.28
2023-02-27T15:27:24.992Z,98489.22
2023-02-27T15:30:00.574Z,98493.38
2023-02-27T15:32:37.836Z,98498.72
2023-02-27T15:35:18.130Z,98505.25
2023-02-27T15:37:57.465Z,98504.63
2023-02-27T15:40:34.104Z,98512.97
2023-02-27T15:43:07.330Z,98497.97
2023-02-27T15:45:42.495Z,98503.75
2023-02-27T15:48:16.886Z,98517.81
2023-02-27T15:50:54.366Z,98517.31
2023-02-27T15:53:30.797Z,98514.38
2023-02-27T15:56:08.704Z,98501.97
2023-02-27T15:58:49.054Z,98517.41
2023-02-27T16:01:24.802Z,98522.59
2023-02-27T16:04:01.452Z,98524.66
2023-02-27T16:06:37.302Z,98535.50
2023-02-27T16:09:23.637Z,98542.63
2023-02-27T16:12:22.889Z,98548.53
2023-02-27T16:15:30.083Z,98551.69
2023-02-27T16:18:07.686Z,98552.03
2023-02-27T16:20:44.233Z,98559.38
2023-02-27T16:23:23.578Z,98556.25
2023-02-27T16:26:30.608Z,98562.66
2023-02-27T16:29:06.631Z,98575.41
2023-02-27T16:31:45.287Z,98571.59
2023-02-27T16:34:44.232Z,98571.88
2023-02-27T16:37:22.541Z,98579.28
2023-02-27T16:39:55.507Z,98580.38
2023-02-27T16:42:29.829Z,98581.06
2023-02-27T16:45:02.818Z,98584.88
2023-02-27T16:47:35.839Z,98583.75
2023-02-27T16:50:17.186Z,98592.78
2023-02-27T16:52:50.150Z,98578.69
2023-02-27T16:55:23.501Z,98594.22
2023-02-27T16:57:57.934Z,98594.84
2023-02-27T17:00:31.077Z,98591.91
2023-02-27T17:03:04.592Z,98599.22
2023-02-27T17:05:37.669Z,98594.31
2023-02-27T17:08:12.790Z,98602.66
2023-02-27T17:10:45.792Z,98604.03
2023-02-27T17:13:20.217Z,98604.59
2023-02-27T17:15:53.654Z,98607.56
2023-02-27T17:18:26.807Z,98626.03
2023-02-27T17:21:01.729Z,98623.56
2023-02-27T17:23:35.268Z,98612.09
2023-02-27T17:26:08.324Z,98611.84
2023-02-27T17:28:42.754Z,98611.13
2023-02-27T17:31:20.411Z,98628.22
2023-02-27T17:33:54.457Z,98622.88
2023-02-27T17:36:27.706Z,98621.38
2023-02-27T17:39:01.872Z,98627.13
2023-02-27T17:41:35.020Z,98624.25
2023-02-27T17:44:13.442Z,98635.91
2023-02-27T17:46:46.438Z,98640.56
2023-02-27T17:49:19.531Z,98643.56
2023-02-27T17:51:52.545Z,98639.41
2023-02-27T17:54:25.483Z,98649.38
2023-02-27T17:56:58.764Z,98647.38
2023-02-27T17:59:33.291Z,98647.38
2023-02-27T18:02:06.293Z,98648.84
2023-02-27T18:04:39.385Z,98646.16
2023-02-27T18:07:12.389Z,98653.88
2023-02-27T18:09:46.679Z,98653.63
2023-02-27T18:12:19.748Z,98661.00
2023-02-27T18:14:54.440Z,98660.28
2023-02-27T18:17:27.457Z,98662.41
2023-02-27T18:20:00.468Z,98666.53
2023-02-27T18:22:33.920Z,98668.47
2023-02-27T18:25:08.215Z,98671.28
2023-02-27T18:27:41.208Z,98668.66
2023-02-27T18:30:16.475Z,98672.66
2023-02-27T18:32:49.872Z,98672.19
2023-02-27T18:35:23.292Z,98668.97
2023-02-27T18:37:56.298Z,98666.06
2023-02-27T18:40:29.613Z,98680.22
2023-02-27T18:43:02.861Z,98675.75
2023-02-27T18:45:38.183Z,98675.94
2023-02-27T18:48:11.180Z,98665.91
2023-02-27T18:50:44.324Z,98682.81
2023-02-27T18:53:18.375Z,98678.59
2023-02-27T18:55:51.333Z,98680.13
2023-02-27T18:58:24.340Z,98675.28
2023-02-27T19:00:59.353Z,98682.81
2023-02-27T19:03:33.146Z,98678.94
2023-02-27T19:06:06.648Z,98675.09
2023-02-27T19:08:39.732Z,98679.53
2023-02-27T19:11:21.951Z,98673.56
2023-02-27T19:13:55.070Z,98681.88
2023-02-27T19:16:30.315Z,98677.38
2023-02-27T19:19:05.033Z,98677.50
2023-02-27T19:21:39.351Z,98672.94
2023-02-27T19:24:14.559Z,98668.09
2023-02-27T19:27:05.539Z,98673.13
2023-02-27T19:29:38.640Z,98679.50
2023-02-27T19:32:14.666Z,98675.81
2023-02-27T19:34:47.750Z,98677.81
2023-02-27T19:37:20.711Z,98674.47
2023-02-27T19:39:53.868Z,98672.69
2023-02-27T19:42:27.081Z,98672.34
2023-02-27T19:45:00.217Z,98668.00
2023-02-27T19:47:34.689Z,98672.34
2023-02-27T19:50:08.959Z,98668.66
2023-02-27T19:52:41.980Z,98675.75
2023-02-27T19:55:15.053Z,98662.13
2023-02-27T19:57:48.038Z,98676.97
2023-02-27T20:00:22.727Z,98673.69
2023-02-27T20:02:57.306Z,98677.84
2023-02-27T20:05:30.387Z,98672.56
2023-02-27T20:08:03.405Z,98669.66
2023-02-27T20:10:36.414Z,98666.03
2023-02-27T20:13:09.721Z,98668.59
2023-02-27T20:15:42.710Z,98666.59
2023-02-27T20:18:17.039Z,98673.91
2023-02-27T20:20:49.997Z,98662.63
2023-02-27T20:23:23.227Z,98660.03
2023-02-27T20:25:56.398Z,98652.81
2023-02-27T20:28:29.485Z,98662.97
2023-02-27T20:31:03.755Z,98662.53
2023-02-27T20:33:38.386Z,98656.91
2023-02-27T20:36:13.002Z,98664.09
2023-02-27T20:38:46.441Z,98666.94
2023-02-27T20:41:22.505Z,98659.94
2023-02-27T20:43:56.184Z,98657.13
2023-02-27T20:46:31.208Z,98652.91
2023-02-27T20:49:07.120Z,98653.91
2023-02-27T20:51:41.416Z,98646.63
2023-02-27T20:54:20.295Z,98642.09
2023-02-27T20:56:54.434Z,98647.03
2023-02-27T20:59:27.788Z,98643.69
2023-02-27T21:02:02.230Z,98652.25
2023-02-27T21:04:47.037Z,98644.69
2023-02-27T21:07:22.603Z,98648.00
2023-02-27T21:09:55.712Z,98650.63
2023-02-27T21:12:28.792Z,98648.75
2023-02-27T21:15:01.777Z,98652.91
2023-02-27T21:17:34.772Z,98650.56
2023-02-27T21:20:11.385Z,98653.22
2023-02-27T21:22:44.380Z,98644.84
2023-02-27T21:25:17.493Z,98644.94
2023-02-27T21:27:50.608Z,98648.44
2023-02-27T21:30:23.731Z,98640.00
2023-02-27T21:32:56.912Z,98641.16
2023-02-27T21:35:31.252Z,98649.34
2023-02-27T21:38:05.303Z,98626.31
2023-02-27T21:40:38.262Z,98638.09
2023-02-27T21:43:11.445Z,98629.81
2023-02-27T21:45:47.465Z,98633.81
2023-02-27T21:48:20.493Z,98626.97
2023-02-27T21:50:58.762Z,98624.34
2023-02-27T21:53:32.651Z,98618.47
2023-02-27T21:56:08.211Z,98623.38
2023-02-27T21:58:41.252Z,98624.97
2023-02-27T22:01:16.023Z,98621.38
2023-02-27T22:03:52.771Z,98620.88
2023-02-27T22:06:32.517Z,98614.03
2023-02-27T22:09:07.969Z,98612.59
2023-02-27T22:11:41.766Z,98611.09
2023-02-27T22:14:15.350Z,98620.97
2023-02-27T22:16:48.414Z,98613.69
2023-02-27T22:19:22.598Z,98618.34
2023-02-27T22:21:56.922Z,98611.88
2023-02-27T22:24:29.941Z,98625.56
2023-02-27T22:27:02.893Z,98616.22
2023-02-27T22:29:35.883Z,98624.53
2023-02-27T22:32:08.891Z,98617.59
2023-02-27T22:34:41.964Z,98622.16
2023-02-27T22:37:19.241Z,98621.09
2023-02-27T22:39:52.230Z,98613.81
2023-02-27T22:42:25.413Z,98614.38
2023-02-27T22:44:58.374Z,98620.00
2023-02-27T22:47:31.486Z,98619.00
2023-02-27T22:50:05.122Z,98611.06
2023-02-27T22:52:39.531Z,98604.41
2023-02-27T22:55:12.659Z,98615.94
2023-02-27T22:57:49.892Z,98613.78
2023-02-27T23:00:23.099Z,98609.06
2023-02-27T23:02:56.121Z,98607.38
2023-02-27T23:05:29.116Z,98600.38
2023-02-27T23:08:03.430Z,98601.28
2023-02-27T23:10:36.874Z,98603.97
2023-02-27T23:13:11.012Z,98608.34
2023-02-27T23:15:44.048Z,98602.97
2023-02-27T23:18:17.116Z,98605.28
2023-02-27T23:20:50.147Z,98614.53
2023-02-27T23:23:24.456Z,98605.78
2023-02-27T23:26:01.706Z,98605.22
2023-02-27T23:28:36.855Z,98604.13
2023-02-27T23:31:10.277Z,98609.59
2023-02-27T23:33:43.338Z,98601.06
2023-02-27T23:36:16.827Z,98602.41
2023-02-27T23:38:51.097Z,98610.63
2023-02-27T23:41:24.072Z,98600.06
2023-02-27T23:43:57.148Z,98599.47
2023-02-27T23:46:30.910Z,98598.69
2023-02-27T23:49:04.021Z,98593.69
2023-02-27T23:51:37.276Z,98598.91
2023-02-27T23:54:11.731Z,98597.44
2023-02-27T23:56:47.398Z,98602.84
2023-02-27T23:59:20.417Z,98602.75
